Time;durP1;ratioP1;P1;durP2;ratioP2;P2;SDS_P1;SDS_P2;PMS_P1;PMS_P2;Temp;Humidity;BMP_temperature;BMP_pressure;BME280_temperature;BME280_humidity;BME280_pressure;Samples;Min_cycle;Max_cycle;Signal;HPM_P1;HPM_P2
2021/03/11 00:00:08;;;;;;;9.82;7.00;;;10.40;74.60;;;;;;4992691;28;20460;-82
2021/03/11 00:02:37;;;;;;;9.85;6.85;;;10.30;74.60;;;;;;4988333;28;20034;-83
2021/03/11 00:05:09;;;;;;;10.82;7.80;;;10.40;74.60;;;;;;4992495;28;20411;-83
2021/03/11 00:07:36;;;;;;;9.57;6.82;;;10.30;74.60;;;;;;4992397;28;20158;-83
2021/03/11 00:10:02;;;;;;;9.63;6.53;;;10.30;75.20;;;;;;4973565;28;20037;-83
2021/03/11 00:12:28;;;;;;;8.90;6.65;;;10.30;74.60;;;;;;4972801;28;20105;-83
2021/03/11 00:14:54;;;;;;;9.70;6.53;;;10.30;74.60;;;;;;4959241;28;20125;-83
2021/03/11 00:17:19;;;;;;;9.73;6.65;;;10.30;74.60;;;;;;4943974;28;20114;-83
2021/03/11 00:19:45;;;;;;;10.38;7.20;;;10.30;74.60;;;;;;4975237;28;20034;-83
2021/03/11 00:22:11;;;;;;;9.80;6.88;;;10.30;74.70;;;;;;4976044;28;20039;-83
2021/03/11 00:24:37;;;;;;;9.48;6.68;;;10.30;75.30;;;;;;4991997;28;20046;-83
2021/03/11 00:27:03;;;;;;;9.27;6.95;;;10.30;74.70;;;;;;4944212;28;20363;-82
2021/03/11 00:29:29;;;;;;;9.25;6.95;;;10.30;74.70;;;;;;4956864;28;20039;-83
2021/03/11 00:31:55;;;;;;;8.80;6.25;;;10.30;74.70;;;;;;4955197;28;20038;-83
2021/03/11 00:34:21;;;;;;;8.95;6.50;;;10.30;74.70;;;;;;4991888;28;20034;-83
2021/03/11 00:36:47;;;;;;;10.13;6.53;;;10.30;74.70;;;;;;4994425;28;20062;-83
2021/03/11 00:39:15;;;;;;;8.32;6.32;;;10.30;74.70;;;;;;4980180;28;20065;-83
2021/03/11 00:41:41;;;;;;;8.70;6.60;;;10.30;74.70;;;;;;4996244;28;20027;-83
2021/03/11 00:44:07;;;;;;;9.55;6.40;;;10.30;74.70;;;;;;4980005;28;20042;-83
2021/03/11 00:46:33;;;;;;;9.32;6.72;;;10.20;74.70;;;;;;4980116;28;20034;-84
2021/03/11 00:48:58;;;;;;;8.73;6.22;;;10.30;74.70;;;;;;4995976;28;20034;-83
2021/03/11 00:51:24;;;;;;;9.70;6.82;;;10.30;74.70;;;;;;4976673;28;20037;-82
2021/03/11 00:53:50;;;;;;;8.70;6.95;;;10.20;74.70;;;;;;4979901;28;20125;-83
2021/03/11 00:56:16;;;;;;;9.13;6.20;;;10.20;74.70;;;;;;4978833;28;20043;-82
2021/03/11 00:58:42;;;;;;;8.68;6.55;;;10.20;74.70;;;;;;4980036;28;20026;-82
2021/03/11 01:01:08;;;;;;;9.18;6.43;;;10.20;74.70;;;;;;4963544;28;20023;-83
2021/03/11 01:03:42;;;;;;;9.45;6.50;;;10.20;74.70;;;;;;4976368;28;20518;-83
2021/03/11 01:06:08;;;;;;;9.68;6.30;;;10.20;74.70;;;;;;4963028;28;20027;-82
2021/03/11 01:08:40;;;;;;;8.65;6.10;;;10.20;74.70;;;;;;4980187;28;20391;-83
2021/03/11 01:11:06;;;;;;;9.90;6.25;;;10.20;74.70;;;;;;4963471;28;20034;-83
2021/03/11 01:13:31;;;;;;;9.93;7.18;;;10.20;74.70;;;;;;4995297;28;20034;-83
2021/03/11 01:15:57;;;;;;;8.77;6.38;;;10.20;74.80;;;;;;4979308;28;20022;-83
2021/03/11 01:18:25;;;;;;;9.85;6.35;;;10.20;74.80;;;;;;4973565;28;20023;-83
2021/03/11 01:20:51;;;;;;;9.30;6.32;;;10.20;74.80;;;;;;4978890;28;20030;-83
2021/03/11 01:23:16;;;;;;;9.65;6.20;;;10.20;74.80;;;;;;4994209;28;20109;-82
2021/03/11 01:25:42;;;;;;;8.82;6.60;;;10.20;74.80;;;;;;4962807;28;20130;-83
2021/03/11 01:28:08;;;;;;;9.20;6.55;;;10.20;74.80;;;;;;4979001;28;20042;-84
2021/03/11 01:30:34;;;;;;;9.82;6.80;;;10.20;74.80;;;;;;4978949;28;20053;-83
2021/03/11 01:32:59;;;;;;;9.18;6.50;;;10.20;74.80;;;;;;4975954;28;20498;-83
2021/03/11 01:35:25;;;;;;;7.82;5.75;;;10.20;75.50;;;;;;4991683;28;20446;-83
2021/03/11 01:37:51;;;;;;;9.40;6.57;;;10.20;74.80;;;;;;4978693;28;20468;-83
2021/03/11 01:40:17;;;;;;;9.15;6.30;;;10.20;74.80;;;;;;4978841;28;20038;-83
2021/03/11 01:42:43;;;;;;;8.77;6.32;;;10.20;74.80;;;;;;4992886;28;20018;-83
2021/03/11 01:45:09;;;;;;;8.68;6.38;;;10.20;74.80;;;;;;4978603;28;20069;-83
2021/03/11 01:47:35;;;;;;;8.65;6.00;;;10.10;74.80;;;;;;4945449;28;20130;-83
2021/03/11 01:50:01;;;;;;;8.30;5.95;;;10.20;74.90;;;;;;4994787;28;20117;-83
2021/03/11 01:52:27;;;;;;;8.98;6.57;;;10.20;74.90;;;;;;4978066;28;20471;-83
2021/03/11 01:54:53;;;;;;;8.65;6.07;;;10.20;74.90;;;;;;4975269;28;20080;-84
2021/03/11 01:57:19;;;;;;;8.77;6.10;;;10.10;74.80;;;;;;4989054;28;20019;-82
2021/03/11 01:59:47;;;;;;;7.97;5.85;;;10.20;74.90;;;;;;4994859;28;20045;-83
2021/03/11 02:02:13;;;;;;;8.52;6.05;;;10.20;75.00;;;;;;4978556;28;20018;-83
2021/03/11 02:04:39;;;;;;;7.35;5.68;;;10.20;75.00;;;;;;4958534;28;20109;-83
2021/03/11 02:07:05;;;;;;;8.30;5.90;;;10.20;75.00;;;;;;4969642;28;20038;-82
2021/03/11 02:09:32;;;;;;;9.85;6.53;;;10.20;75.00;;;;;;4977651;28;20157;-83
2021/03/11 02:12:25;;;;;;;8.10;5.97;;;10.20;75.00;;;;;;4978283;28;20081;-83
2021/03/11 02:15:09;;;;;;;6.97;5.22;;;10.20;75.00;;;;;;4993992;28;20080;-83
2021/03/11 02:18:00;;;;;;;7.40;5.53;;;10.20;75.10;;;;;;4994498;28;20470;-83
2021/03/11 02:20:44;;;;;;;7.75;5.57;;;10.20;75.00;;;;;;4983308;28;20121;-82
2021/03/11 02:23:39;;;;;;;8.00;5.57;;;10.20;75.00;;;;;;4993955;28;20064;-83
2021/03/11 02:26:21;;;;;;;7.18;5.55;;;10.10;75.10;;;;;;4993957;28;20395;-83
2021/03/11 02:29:01;;;;;;;7.72;5.53;;;10.10;75.00;;;;;;4993806;28;20107;-83
2021/03/11 02:31:30;;;;;;;7.70;5.32;;;10.10;75.10;;;;;;5004159;28;20030;-83
2021/03/11 02:33:58;;;;;;;8.07;6.00;;;10.10;75.70;;;;;;4993970;28;20031;-83
2021/03/11 02:36:26;;;;;;;7.07;4.88;;;10.10;75.10;;;;;;4993927;28;20038;-83
2021/03/11 02:38:54;;;;;;;8.13;5.40;;;10.20;75.20;;;;;;4994012;28;20277;-83
2021/03/11 02:41:23;;;;;;;8.90;6.00;;;10.20;75.20;;;;;;4977643;28;20475;-84
2021/03/11 02:43:49;;;;;;;7.45;5.50;;;10.20;75.20;;;;;;4976937;28;20041;-83
2021/03/11 02:46:17;;;;;;;7.22;5.40;;;10.20;75.20;;;;;;4961514;28;20060;-83
2021/03/11 02:48:49;;;;;;;7.13;5.35;;;10.20;75.20;;;;;;4976519;28;20038;-83
2021/03/11 02:51:15;;;;;;;7.78;5.05;;;10.20;75.20;;;;;;4990809;28;20023;-84
2021/03/11 02:53:42;;;;;;;7.53;5.07;;;10.20;75.20;;;;;;4993492;28;20110;-82
2021/03/11 02:56:09;;;;;;;7.47;5.38;;;10.20;75.20;;;;;;4977479;28;20099;-82
2021/03/11 02:58:36;;;;;;;7.22;5.20;;;10.20;75.20;;;;;;4993321;28;20037;-83
2021/03/11 03:01:07;;;;;;;7.05;5.18;;;10.20;75.30;;;;;;4993360;28;20045;-83
2021/03/11 03:03:34;;;;;;;6.40;4.68;;;10.20;75.30;;;;;;4976846;28;20045;-82
2021/03/11 03:06:01;;;;;;;6.97;4.95;;;10.20;75.30;;;;;;4961211;28;20050;-83
2021/03/11 03:08:28;;;;;;;6.95;4.75;;;10.20;75.30;;;;;;4977207;28;20034;-82
2021/03/11 03:10:54;;;;;;;6.13;4.53;;;10.20;75.30;;;;;;4993452;28;20037;-83
2021/03/11 03:13:22;;;;;;;6.63;4.65;;;10.20;75.40;;;;;;4958072;28;20039;-83
2021/03/11 03:15:48;;;;;;;6.78;4.63;;;10.20;75.40;;;;;;4987821;28;20034;-82
2021/03/11 03:18:17;;;;;;;6.70;4.78;;;10.20;75.30;;;;;;4975307;28;20026;-82
2021/03/11 03:20:44;;;;;;;6.38;4.50;;;10.20;75.40;;;;;;4976820;28;20031;-82
2021/03/11 03:23:11;;;;;;;7.72;5.50;;;10.20;75.40;;;;;;4976764;28;20069;-82
2021/03/11 03:25:36;;;;;;;7.45;5.00;;;10.20;75.40;;;;;;4992825;28;20483;-82
2021/03/11 03:28:02;;;;;;;7.50;4.38;;;10.30;75.40;;;;;;4973548;28;20062;-82
2021/03/11 03:30:28;;;;;;;6.70;4.60;;;10.30;75.40;;;;;;4990833;28;20046;-82
2021/03/11 03:32:54;;;;;;;6.10;4.55;;;10.30;75.40;;;;;;4975830;28;20489;-82
2021/03/11 03:35:24;;;;;;;7.15;5.10;;;10.30;75.40;;;;;;4990702;28;20105;-83
2021/03/11 03:37:52;;;;;;;5.75;4.13;;;10.20;75.40;;;;;;4973058;28;20054;-82
2021/03/11 03:40:19;;;;;;;5.97;4.43;;;10.30;75.40;;;;;;4963958;28;20446;-81
2021/03/11 03:43:05;;;;;;;5.90;4.35;;;10.30;75.40;;;;;;4960608;28;20045;-81
2021/03/11 03:45:37;;;;;;;6.35;4.75;;;10.30;75.40;;;;;;4993959;28;20360;-82
2021/03/11 03:48:06;;;;;;;5.68;4.10;;;10.20;75.40;;;;;;4992523;28;20471;-82
2021/03/11 03:50:33;;;;;;;5.70;4.18;;;10.30;75.40;;;;;;4976461;28;20031;-81
2021/03/11 03:53:03;;;;;;;6.38;4.28;;;10.30;75.40;;;;;;4993196;28;20026;-82
2021/03/11 03:55:30;;;;;;;5.28;4.03;;;10.30;75.40;;;;;;4992521;28;20030;-82
2021/03/11 03:57:56;;;;;;;7.20;4.55;;;10.30;75.40;;;;;;4991116;28;20475;-82
2021/03/11 04:00:24;;;;;;;5.78;3.92;;;10.30;75.40;;;;;;4975890;28;20475;-82
2021/03/11 04:02:54;;;;;;;5.80;4.05;;;10.30;75.40;;;;;;4975347;28;20399;-82
2021/03/11 04:05:22;;;;;;;5.57;4.00;;;10.30;75.50;;;;;;4975775;28;20034;-81
2021/03/11 04:07:50;;;;;;;5.55;4.15;;;10.30;75.40;;;;;;4975184;28;20023;-82
2021/03/11 04:10:16;;;;;;;5.28;3.97;;;10.30;75.40;;;;;;4975627;28;20030;-82
2021/03/11 04:12:43;;;;;;;5.53;3.97;;;10.30;75.40;;;;;;4975384;28;20180;-82
2021/03/11 04:15:10;;;;;;;5.78;4.13;;;10.30;75.70;;;;;;4992139;28;20456;-81
2021/03/11 04:17:36;;;;;;;5.82;3.95;;;10.30;75.50;;;;;;4975403;28;20387;-82
2021/03/11 04:20:05;;;;;;;5.35;3.95;;;10.30;75.50;;;;;;4991519;28;20034;-82
2021/03/11 04:22:32;;;;;;;5.38;4.10;;;10.30;75.50;;;;;;4975394;28;20471;-82
2021/03/11 04:24:59;;;;;;;5.40;4.20;;;10.40;75.50;;;;;;4975215;28;20061;-82
2021/03/11 04:27:25;;;;;;;6.10;4.40;;;10.40;75.60;;;;;;4957061;28;20030;-82
2021/03/11 04:29:52;;;;;;;5.32;3.75;;;10.40;75.60;;;;;;4975561;28;20030;-82
2021/03/11 04:32:18;;;;;;;5.55;3.88;;;10.40;75.60;;;;;;4992792;28;20046;-83
2021/03/11 04:34:44;;;;;;;5.20;3.88;;;10.30;75.50;;;;;;4991536;28;20426;-82
2021/03/11 04:37:10;;;;;;;5.15;3.95;;;10.40;76.20;;;;;;4991465;28;20035;-82
2021/03/11 04:39:37;;;;;;;5.05;3.85;;;10.40;75.60;;;;;;4975858;28;20033;-82
2021/03/11 04:42:03;;;;;;;5.82;3.58;;;10.40;75.60;;;;;;4992158;28;20065;-82
2021/03/11 04:44:29;;;;;;;5.22;3.88;;;10.40;75.60;;;;;;4975590;28;20031;-82
2021/03/11 04:46:56;;;;;;;5.43;4.00;;;10.40;75.60;;;;;;4975520;28;20038;-82
2021/03/11 04:49:26;;;;;;;6.25;4.20;;;10.40;75.60;;;;;;4992000;28;20061;-82
2021/03/11 04:51:53;;;;;;;5.28;3.75;;;10.40;75.60;;;;;;4975183;28;20062;-82
2021/03/11 04:54:19;;;;;;;5.53;3.97;;;10.40;75.60;;;;;;4991928;28;20039;-83
2021/03/11 04:56:46;;;;;;;5.22;4.03;;;10.40;75.60;;;;;;4975584;28;20467;-83
2021/03/11 04:59:13;;;;;;;5.60;3.97;;;10.40;75.60;;;;;;4975769;28;20041;-82
2021/03/11 05:01:48;;;;;;;5.90;4.20;;;10.50;75.60;;;;;;4975205;28;20523;-82
2021/03/11 05:04:15;;;;;;;5.60;4.05;;;10.50;75.70;;;;;;4970829;28;20113;-82
2021/03/11 05:06:40;;;;;;;5.70;4.00;;;10.50;75.60;;;;;;4971884;28;20428;-82
2021/03/11 05:09:06;;;;;;;5.82;4.20;;;10.50;75.60;;;;;;4986756;28;20037;-83
2021/03/11 05:11:32;;;;;;;5.40;4.00;;;10.50;75.70;;;;;;4976454;28;20039;-83
2021/03/11 05:13:58;;;;;;;5.47;4.18;;;10.50;75.60;;;;;;4982789;28;20034;-83
2021/03/11 05:16:23;;;;;;;6.28;4.65;;;10.50;75.70;;;;;;4993660;28;20463;-83
2021/03/11 05:18:49;;;;;;;6.15;4.07;;;10.50;75.60;;;;;;4976153;28;20031;-82
2021/03/11 05:21:15;;;;;;;5.60;4.00;;;10.50;75.70;;;;;;4991839;28;20026;-83
2021/03/11 05:23:40;;;;;;;5.70;4.22;;;10.50;75.70;;;;;;4977931;28;20483;-83
2021/03/11 05:26:06;;;;;;;6.30;4.50;;;10.50;75.70;;;;;;4978800;28;20121;-82
2021/03/11 05:28:32;;;;;;;6.75;4.63;;;10.50;75.70;;;;;;4975714;28;20031;-82
2021/03/11 05:30:58;;;;;;;5.47;4.13;;;10.50;75.70;;;;;;4962247;28;20027;-83
2021/03/11 05:33:24;;;;;;;5.80;4.15;;;10.50;75.70;;;;;;4975936;28;20034;-83
2021/03/11 05:35:49;;;;;;;6.78;4.65;;;10.60;75.80;;;;;;4945759;28;20056;-83
2021/03/11 05:38:15;;;;;;;5.28;3.97;;;10.60;75.80;;;;;;4978887;28;20038;-83
2021/03/11 05:40:41;;;;;;;5.93;4.25;;;10.60;75.70;;;;;;4976795;28;20392;-83
2021/03/11 05:43:08;;;;;;;6.68;4.53;;;10.60;75.80;;;;;;4991504;28;20123;-81
2021/03/11 05:45:34;;;;;;;6.88;4.30;;;10.60;75.80;;;;;;4991391;28;20125;-81
2021/03/11 05:48:00;;;;;;;6.25;4.50;;;10.60;75.80;;;;;;4991772;28;20550;-81
2021/03/11 05:50:27;;;;;;;6.22;4.38;;;10.60;75.80;;;;;;4978462;28;20034;-83
2021/03/11 05:52:55;;;;;;;6.57;4.70;;;10.60;76.40;;;;;;4978200;28;20463;-83
2021/03/11 05:55:21;;;;;;;6.32;4.53;;;10.60;75.80;;;;;;4994432;28;20106;-83
2021/03/11 05:57:47;;;;;;;6.20;4.75;;;10.60;75.70;;;;;;4961814;28;20113;-82
2021/03/11 06:00:19;;;;;;;6.20;4.72;;;10.60;75.80;;;;;;4995559;28;20109;-83
2021/03/11 06:02:46;;;;;;;5.88;4.40;;;10.60;75.80;;;;;;4993623;28;20474;-83
2021/03/11 06:05:15;;;;;;;6.47;4.53;;;10.70;75.80;;;;;;4975314;28;20038;-83
2021/03/11 06:07:45;;;;;;;6.00;4.25;;;10.70;75.80;;;;;;4990314;28;20046;-83
2021/03/11 06:10:14;;;;;;;6.13;4.35;;;10.70;75.90;;;;;;4989666;28;20070;-80
2021/03/11 06:12:41;;;;;;;6.82;4.63;;;10.70;75.80;;;;;;4976965;28;20049;-80
2021/03/11 06:15:10;;;;;;;5.68;4.22;;;10.70;75.80;;;;;;4975466;28;20156;-83
2021/03/11 06:17:39;;;;;;;6.00;3.95;;;10.70;75.80;;;;;;5005993;28;20029;-87
2021/03/11 06:20:07;;;;;;;6.38;4.25;;;10.70;75.80;;;;;;4988703;28;20054;-80
2021/03/11 06:22:33;;;;;;;6.82;4.63;;;10.70;75.80;;;;;;4988565;28;20038;-79
2021/03/11 06:24:59;;;;;;;5.97;4.00;;;10.80;75.90;;;;;;4962021;28;20494;-81
2021/03/11 06:27:25;;;;;;;6.07;4.47;;;10.70;75.90;;;;;;4988493;28;20056;-81
2021/03/11 06:29:51;;;;;;;5.95;4.50;;;10.80;75.90;;;;;;4986274;28;20535;-80
2021/03/11 06:32:16;;;;;;;7.18;4.15;;;10.80;75.90;;;;;;4994501;28;20030;-79
2021/03/11 06:34:43;;;;;;;5.75;3.97;;;10.80;75.90;;;;;;4964663;28;20045;-81
2021/03/11 06:37:13;;;;;;;6.45;4.60;;;10.80;75.90;;;;;;4975716;28;20061;-82
2021/03/11 06:39:41;;;;;;;5.82;4.15;;;10.80;75.90;;;;;;4976449;28;20031;-83
2021/03/11 06:42:08;;;;;;;6.40;4.57;;;10.80;75.90;;;;;;4960708;28;20035;-79
2021/03/11 06:44:41;;;;;;;7.72;4.30;;;10.80;75.90;;;;;;4992944;28;20033;-83
2021/03/11 06:47:14;;;;;;;5.60;4.07;;;10.90;76.00;;;;;;4993350;28;20117;-83
2021/03/11 06:50:01;;;;;;;5.78;4.00;;;10.90;76.00;;;;;;4972657;28;20019;-81
2021/03/11 06:52:27;;;;;;;6.13;4.15;;;10.80;76.00;;;;;;4988222;28;20062;-81
2021/03/11 06:55:04;;;;;;;6.20;4.25;;;10.90;75.90;;;;;;4994692;28;20057;-81
2021/03/11 06:57:38;;;;;;;5.10;3.67;;;10.90;76.00;;;;;;4993381;28;20034;-82
2021/03/11 07:00:21;;;;;;;5.72;3.58;;;10.90;76.00;;;;;;4976958;28;20026;-82
2021/03/11 07:02:52;;;;;;;5.13;3.65;;;10.90;76.10;;;;;;4994245;28;20040;-82
2021/03/11 07:05:20;;;;;;;5.45;3.75;;;10.90;76.00;;;;;;4993485;28;20043;-82
2021/03/11 07:07:47;;;;;;;5.22;3.78;;;10.90;76.00;;;;;;4976755;28;20022;-82
2021/03/11 07:10:26;;;;;;;5.45;3.78;;;10.90;76.00;;;;;;4960859;28;20053;-83
2021/03/11 07:12:57;;;;;;;5.50;3.55;;;10.90;76.00;;;;;;4993678;28;20031;-82
2021/03/11 07:15:25;;;;;;;5.95;3.67;;;11.00;76.00;;;;;;4993131;28;20030;-82
2021/03/11 07:17:51;;;;;;;5.95;3.45;;;11.00;76.00;;;;;;4994075;28;20097;-82
2021/03/11 07:20:21;;;;;;;4.75;3.50;;;11.00;76.00;;;;;;4973248;28;20494;-82
2021/03/11 07:23:11;;;;;;;5.43;3.80;;;11.00;76.00;;;;;;4993047;28;20475;-81
2021/03/11 07:25:39;;;;;;;5.57;3.30;;;11.00;76.10;;;;;;4977146;28;20149;-82
2021/03/11 07:28:07;;;;;;;5.40;3.50;;;11.00;75.90;;;;;;4993969;28;20041;-83
2021/03/11 07:30:53;;;;;;;5.20;3.38;;;11.10;76.00;;;;;;4976012;28;20053;-81
2021/03/11 07:33:20;;;;;;;5.40;3.20;;;11.10;76.10;;;;;;4976129;28;20037;-82
2021/03/11 07:35:48;;;;;;;5.57;3.67;;;11.10;76.00;;;;;;4961088;28;20529;-82
2021/03/11 07:38:22;;;;;;;4.50;3.30;;;11.10;76.00;;;;;;4976282;28;20042;-82
2021/03/11 07:40:50;;;;;;;5.00;3.17;;;11.10;76.00;;;;;;4976531;28;20030;-83
2021/03/11 07:43:17;;;;;;;4.93;2.97;;;11.10;76.00;;;;;;4992256;28;20543;-82
2021/03/11 07:45:43;;;;;;;3.75;2.60;;;11.10;75.90;;;;;;4959697;28;20133;-82
2021/03/11 07:48:10;;;;;;;5.28;2.90;;;11.10;75.90;;;;;;4972585;28;20048;-82
2021/03/11 07:50:36;;;;;;;5.93;3.47;;;11.20;76.00;;;;;;4986186;28;20126;-82
2021/03/11 07:53:04;;;;;;;4.75;2.95;;;11.20;76.00;;;;;;4975863;28;20117;-84
2021/03/11 07:55:31;;;;;;;4.60;2.80;;;11.20;76.00;;;;;;4976394;28;20117;-82
2021/03/11 07:58:00;;;;;;;4.65;3.05;;;11.20;76.00;;;;;;4992193;28;20467;-82
2021/03/11 08:00:28;;;;;;;5.10;3.08;;;11.20;75.90;;;;;;4960599;28;20151;-82
2021/03/11 08:03:27;;;;;;;4.72;2.80;;;11.20;75.90;;;;;;4992447;28;20081;-82
2021/03/11 08:05:53;;;;;;;4.60;2.78;;;11.20;76.10;;;;;;4988328;28;20494;-82
2021/03/11 08:08:29;;;;;;;4.57;2.25;;;11.30;76.00;;;;;;4975863;28;20037;-83
2021/03/11 08:10:58;;;;;;;4.40;2.55;;;11.30;76.00;;;;;;4957535;28;20037;-83
2021/03/11 08:13:23;;;;;;;5.50;2.92;;;11.30;76.00;;;;;;4991339;28;20033;-82
2021/03/11 08:15:53;;;;;;;4.22;2.50;;;11.30;76.00;;;;;;4992256;28;20022;-82
2021/03/11 08:18:34;;;;;;;3.28;2.40;;;11.30;76.00;;;;;;4975850;28;20035;-83
2021/03/11 08:21:01;;;;;;;3.63;2.50;;;11.30;76.00;;;;;;4991870;28;20030;-83
2021/03/11 08:23:28;;;;;;;4.07;2.30;;;11.30;75.90;;;;;;4992957;28;20043;-83
2021/03/11 08:25:54;;;;;;;3.08;2.40;;;11.40;76.00;;;;;;4960073;28;20022;-82
2021/03/11 08:28:20;;;;;;;4.13;2.50;;;11.40;76.00;;;;;;4975612;28;20030;-82
2021/03/11 08:30:46;;;;;;;3.85;2.25;;;11.40;76.00;;;;;;4991814;28;20030;-84
2021/03/11 08:33:13;;;;;;;2.85;2.13;;;11.40;76.00;;;;;;4992146;28;20034;-84
2021/03/11 08:35:42;;;;;;;4.07;2.33;;;11.50;76.00;;;;;;4991665;28;20030;-84
2021/03/11 08:38:19;;;;;;;3.70;2.03;;;11.40;76.00;;;;;;4992820;28;20109;-83
2021/03/11 08:40:46;;;;;;;3.88;2.20;;;11.50;76.10;;;;;;4991909;28;20031;-81
2021/03/11 08:43:34;;;;;;;2.35;1.88;;;11.50;75.90;;;;;;4991361;28;20034;-83
2021/03/11 08:46:01;;;;;;;4.30;1.88;;;11.50;76.10;;;;;;4991690;28;20034;-82
2021/03/11 08:48:41;;;;;;;4.50;1.95;;;11.60;75.90;;;;;;4975716;28;20365;-83
2021/03/11 08:51:30;;;;;;;5.35;2.10;;;11.60;76.00;;;;;;4988909;28;20102;-83
2021/03/11 08:54:08;;;;;;;4.72;1.55;;;11.60;76.00;;;;;;4985499;28;20042;-82
2021/03/11 08:56:38;;;;;;;4.85;2.00;;;11.70;75.90;;;;;;4978768;28;20061;-82
2021/03/11 08:59:24;;;;;;;3.63;2.00;;;11.70;75.80;;;;;;4995538;28;20053;-82
2021/03/11 09:01:51;;;;;;;3.33;1.70;;;11.70;75.80;;;;;;4994923;28;20031;-82
2021/03/11 09:04:19;;;;;;;4.13;1.90;;;11.80;75.80;;;;;;4978559;28;20034;-82
2021/03/11 09:06:51;;;;;;;4.32;1.90;;;11.80;75.80;;;;;;4990554;28;20101;-82
2021/03/11 09:09:38;;;;;;;5.15;1.98;;;11.80;75.80;;;;;;4978965;28;20053;-82
2021/03/11 09:12:11;;;;;;;4.65;1.80;;;11.80;75.80;;;;;;4995681;28;20038;-82
2021/03/11 09:14:38;;;;;;;4.70;1.98;;;11.80;75.70;;;;;;4979068;28;20044;-82
2021/03/11 09:17:16;;;;;;;4.20;1.80;;;11.90;75.70;;;;;;4978889;28;20475;-81
2021/03/11 09:20:00;;;;;;;4.13;1.73;;;11.90;75.70;;;;;;4978823;28;20034;-81
2021/03/11 09:22:30;;;;;;;4.63;1.83;;;11.90;75.60;;;;;;4984713;28;20038;-82
2021/03/11 09:25:03;;;;;;;3.85;1.95;;;11.90;75.50;;;;;;4978417;28;20486;-82
2021/03/11 09:27:29;;;;;;;6.07;2.08;;;12.00;75.60;;;;;;4996022;28;20060;-82
2021/03/11 09:29:56;;;;;;;6.18;2.10;;;12.00;75.50;;;;;;4996236;28;20026;-83
2021/03/11 09:32:30;;;;;;;4.97;1.73;;;12.00;75.50;;;;;;4995835;28;20025;-82
2021/03/11 09:35:00;;;;;;;5.40;2.05;;;12.10;75.50;;;;;;4978645;28;20038;-82
2021/03/11 09:37:45;;;;;;;4.95;1.77;;;12.10;75.40;;;;;;4994532;28;20561;-82
2021/03/11 09:40:13;;;;;;;5.63;1.73;;;12.10;75.50;;;;;;4994690;28;20066;-82
2021/03/11 09:43:27;;;;;;;4.95;2.20;;;12.20;75.30;;;;;;4992157;28;20061;-82
2021/03/11 09:45:59;;;;;;;6.00;2.00;;;12.20;75.50;;;;;;4916871;29;20135;-81
2021/03/11 09:48:25;;;;;;;5.10;1.48;;;12.20;75.20;;;;;;4904805;29;20029;-82
2021/03/11 09:51:11;;;;;;;6.25;2.13;;;12.30;75.20;;;;;;4953081;28;20117;-82
2021/03/11 09:53:42;;;;;;;7.13;2.38;;;12.30;75.30;;;;;;4995123;28;20027;-83
2021/03/11 09:56:28;;;;;;;9.45;2.75;;;12.30;75.10;;;;;;4994754;28;20107;-83
2021/03/11 09:59:13;;;;;;;6.28;2.35;;;12.40;75.20;;;;;;4994751;28;20026;-83
2021/03/11 10:01:47;;;;;;;5.90;2.22;;;12.40;75.10;;;;;;4978746;28;20467;-82
2021/03/11 10:04:12;;;;;;;5.68;2.10;;;12.50;75.00;;;;;;4995379;28;20475;-83
2021/03/11 10:06:57;;;;;;;7.13;2.33;;;12.50;74.90;;;;;;4994850;28;20077;-82
2021/03/11 10:09:25;;;;;;;6.25;2.28;;;12.50;74.90;;;;;;4977463;28;20045;-82
2021/03/11 10:11:53;;;;;;;5.55;1.98;;;12.60;74.80;;;;;;4982614;28;20122;-84
2021/03/11 10:14:22;;;;;;;6.35;2.00;;;12.60;74.80;;;;;;4994285;28;20061;-82
2021/03/11 10:16:50;;;;;;;7.30;2.20;;;12.60;74.80;;;;;;4996798;28;20026;-82
2021/03/11 10:19:27;;;;;;;7.53;2.38;;;12.70;74.70;;;;;;4994949;28;20041;-82
2021/03/11 10:22:03;;;;;;;6.60;2.15;;;12.70;74.60;;;;;;4995761;28;20116;-82
2021/03/11 10:24:44;;;;;;;5.53;2.30;;;12.70;74.50;;;;;;4996601;28;20483;-82
2021/03/11 10:27:28;;;;;;;6.10;2.10;;;12.80;74.50;;;;;;4979944;28;20045;-81
2021/03/11 10:30:03;;;;;;;7.80;2.50;;;12.80;74.50;;;;;;4995550;28;20037;-82
2021/03/11 10:32:30;;;;;;;6.15;2.10;;;12.90;74.40;;;;;;4996922;28;20097;-82
2021/03/11 10:34:56;;;;;;;7.07;2.53;;;12.90;74.40;;;;;;4995864;28;20037;-82
2021/03/11 10:37:36;;;;;;;6.07;2.20;;;12.90;74.30;;;;;;4978291;28;20034;-82
2021/03/11 10:40:10;;;;;;;4.63;1.80;;;12.90;74.40;;;;;;4996370;28;20043;-82
2021/03/11 10:42:41;;;;;;;6.05;1.85;;;13.00;74.30;;;;;;4993019;28;20034;-81
2021/03/11 10:45:09;;;;;;;5.20;2.10;;;13.00;74.20;;;;;;4993577;28;20065;-82
2021/03/11 10:47:35;;;;;;;7.20;2.40;;;13.00;74.20;;;;;;4992506;28;20022;-82
2021/03/11 10:50:00;;;;;;;7.65;2.08;;;13.00;74.10;;;;;;4951041;28;20380;-82
2021/03/11 10:52:26;;;;;;;7.15;2.90;;;13.10;74.10;;;;;;4960990;28;20459;-82
2021/03/11 10:54:52;;;;;;;7.07;2.45;;;13.10;74.10;;;;;;4993449;28;20102;-82
2021/03/11 10:57:20;;;;;;;4.90;1.88;;;13.20;74.00;;;;;;4993184;28;20034;-82
2021/03/11 10:59:59;;;;;;;6.97;2.38;;;13.10;74.00;;;;;;4977069;28;20022;-82
2021/03/11 11:02:26;;;;;;;7.15;2.42;;;13.20;74.00;;;;;;4977157;28;20033;-82
2021/03/11 11:04:52;;;;;;;7.55;2.13;;;13.20;73.90;;;;;;4992906;28;20026;-82
2021/03/11 11:07:19;;;;;;;6.38;2.28;;;13.30;73.90;;;;;;4976886;28;20450;-82
2021/03/11 11:09:46;;;;;;;7.78;2.63;;;13.30;73.80;;;;;;4976354;28;20084;-82
2021/03/11 11:12:15;;;;;;;5.45;2.00;;;13.30;73.70;;;;;;4976931;28;20027;-82
2021/03/11 11:14:41;;;;;;;7.00;2.00;;;13.30;73.70;;;;;;4976631;28;20475;-81
2021/03/11 11:17:08;;;;;;;7.45;2.05;;;13.30;73.70;;;;;;4976837;28;20030;-82
2021/03/11 11:19:34;;;;;;;4.45;2.40;;;13.40;73.70;;;;;;4976375;28;20125;-81
2021/03/11 11:22:00;;;;;;;7.63;2.22;;;13.40;73.70;;;;;;4973243;28;20086;-82
2021/03/11 11:24:26;;;;;;;5.55;1.88;;;13.40;73.70;;;;;;4975246;28;20480;-81
2021/03/11 11:26:56;;;;;;;6.97;2.30;;;13.40;73.70;;;;;;4993599;28;20034;-81
2021/03/11 11:29:23;;;;;;;7.28;1.95;;;13.50;73.70;;;;;;4979294;28;20034;-82
2021/03/11 11:31:49;;;;;;;6.30;2.20;;;13.50;73.70;;;;;;4976533;28;20030;-81
2021/03/11 11:34:15;;;;;;;5.70;2.15;;;13.50;73.60;;;;;;4992786;28;20031;-81
2021/03/11 11:36:41;;;;;;;6.47;2.30;;;13.50;73.60;;;;;;4992613;28;20500;-83
2021/03/11 11:39:08;;;;;;;5.97;2.10;;;13.50;73.60;;;;;;4992509;28;20084;-84
2021/03/11 11:41:37;;;;;;;6.07;2.17;;;13.60;73.60;;;;;;4976719;28;20042;-82
2021/03/11 11:44:04;;;;;;;6.32;2.35;;;13.60;73.50;;;;;;5007787;28;20034;-83
2021/03/11 11:46:29;;;;;;;6.78;2.38;;;13.60;73.40;;;;;;4992393;28;20041;-83
2021/03/11 11:48:55;;;;;;;6.47;2.03;;;13.60;73.30;;;;;;4973596;28;20039;-83
2021/03/11 11:51:21;;;;;;;6.65;2.00;;;13.60;73.20;;;;;;4975630;28;20022;-83
2021/03/11 11:53:47;;;;;;;5.10;1.65;;;13.60;73.20;;;;;;4975971;28;20545;-83
2021/03/11 11:56:12;;;;;;;6.68;2.53;;;13.70;73.10;;;;;;4991971;28;20039;-83
2021/03/11 11:58:44;;;;;;;4.78;1.95;;;13.70;73.00;;;;;;4976157;28;20026;-81
2021/03/11 12:01:11;;;;;;;5.55;2.05;;;13.70;73.00;;;;;;4976162;28;20449;-83
2021/03/11 12:03:37;;;;;;;6.68;1.75;;;13.70;72.90;;;;;;4992840;28;20478;-83
2021/03/11 12:06:03;;;;;;;7.63;2.13;;;13.80;73.00;;;;;;4992086;28;20110;-84
2021/03/11 12:08:29;;;;;;;4.72;1.60;;;13.80;72.90;;;;;;4976000;28;20505;-83
2021/03/11 12:10:55;;;;;;;4.95;1.77;;;13.80;72.70;;;;;;4992589;28;20022;-82
2021/03/11 12:13:21;;;;;;;5.57;2.08;;;13.80;72.70;;;;;;4978436;28;20022;-82
2021/03/11 12:15:47;;;;;;;7.13;1.88;;;13.80;72.60;;;;;;4975869;28;20030;-82
2021/03/11 12:18:13;;;;;;;5.90;2.08;;;13.90;73.30;;;;;;4992239;28;20382;-83
2021/03/11 12:20:39;;;;;;;7.88;2.00;;;13.90;72.60;;;;;;4992781;28;20101;-82
2021/03/11 12:23:05;;;;;;;4.50;1.90;;;13.90;72.60;;;;;;4991468;28;20415;-82
2021/03/11 12:25:32;;;;;;;5.15;1.77;;;13.90;72.40;;;;;;4974538;28;20073;-82
2021/03/11 12:27:58;;;;;;;6.15;1.90;;;13.90;72.40;;;;;;4975723;28;20080;-82
2021/03/11 12:30:24;;;;;;;5.80;2.17;;;13.90;72.30;;;;;;4975606;28;20463;-82
2021/03/11 12:32:50;;;;;;;6.07;2.15;;;14.00;72.20;;;;;;4997136;28;20014;-81
2021/03/11 12:35:17;;;;;;;6.18;2.10;;;14.00;72.20;;;;;;4982069;28;20088;-82
2021/03/11 12:37:43;;;;;;;4.38;1.98;;;14.00;72.10;;;;;;4981514;28;20572;-82
2021/03/11 12:40:09;;;;;;;5.47;2.05;;;14.00;72.00;;;;;;4998556;28;20399;-83
2021/03/11 12:42:35;;;;;;;4.78;1.70;;;14.10;72.00;;;;;;4982271;28;20018;-82
2021/03/11 12:45:01;;;;;;;5.95;1.88;;;14.10;71.90;;;;;;4999619;28;20232;-82
2021/03/11 12:47:27;;;;;;;5.30;1.90;;;14.10;71.90;;;;;;4998143;28;20415;-82
2021/03/11 12:49:52;;;;;;;5.50;1.70;;;14.10;71.80;;;;;;4982057;28;20029;-82
2021/03/11 12:52:18;;;;;;;4.25;1.70;;;14.10;71.70;;;;;;4998138;28;20395;-81
2021/03/11 12:54:44;;;;;;;6.68;1.90;;;14.20;71.70;;;;;;4981454;28;20030;-82